createdAt,value
2018-09-30T00:00:40.927Z,6.15
2018-09-30T00:01:40.904Z,6.18
2018-09-30T00:02:40.894Z,6.09
2018-09-30T00:03:40.885Z,6.04
2018-09-30T00:04:40.904Z,6.11
2018-09-30T00:05:40.862Z,6.00
2018-09-30T00:06:40.854Z,6.01
2018-09-30T00:07:40.846Z,5.94
2018-09-30T00:08:40.829Z,5.89
2018-09-30T00:09:40.823Z,5.79
2018-09-30T00:10:40.840Z,5.85
2018-09-30T00:11:40.793Z,5.81
2018-09-30T00:12:40.813Z,5.79
2018-09-30T00:13:40.769Z,5.79
2018-09-30T00:14:40.759Z,5.72
2018-09-30T00:15:40.772Z,5.78
2018-09-30T00:16:40.736Z,5.67
2018-09-30T00:17:40.727Z,5.54
2018-09-30T00:18:40.733Z,5.51
2018-09-30T00:19:40.752Z,5.39
2018-09-30T00:20:40.733Z,5.42
2018-09-30T00:21:40.686Z,5.36
2018-09-30T00:22:40.677Z,5.33
2018-09-30T00:23:40.658Z,5.25
2018-09-30T00:24:40.654Z,5.27
2018-09-30T00:25:40.670Z,5.22
2018-09-30T00:26:40.659Z,5.12
2018-09-30T00:27:40.619Z,5.13
2018-09-30T00:28:40.612Z,5.20
2018-09-30T00:29:40.593Z,5.12
2018-09-30T00:30:40.584Z,5.07
2018-09-30T00:31:40.595Z,4.96
2018-09-30T00:32:40.559Z,4.86
2018-09-30T00:33:40.556Z,4.77
2018-09-30T00:34:40.543Z,4.78
2018-09-30T00:35:40.526Z,4.77
2018-09-30T00:36:40.544Z,4.77
2018-09-30T00:37:40.515Z,4.77
2018-09-30T00:38:40.493Z,4.72
2018-09-30T00:39:40.495Z,4.58
2018-09-30T00:40:40.475Z,4.58
2018-09-30T00:41:40.502Z,4.58
2018-09-30T00:42:40.455Z,4.48
2018-09-30T00:43:40.443Z,4.44
2018-09-30T00:44:40.430Z,4.45
2018-09-30T00:45:40.422Z,4.47
2018-09-30T00:46:40.437Z,4.45
2018-09-30T00:47:40.429Z,4.47
2018-09-30T00:48:40.383Z,4.34
2018-09-30T00:49:40.376Z,4.36
2018-09-30T00:50:40.371Z,4.30
2018-09-30T00:51:40.352Z,4.27
2018-09-30T00:52:40.371Z,4.20
2018-09-30T00:53:40.338Z,4.29
2018-09-30T00:54:40.319Z,4.22
2018-09-30T00:55:40.309Z,4.16
2018-09-30T00:56:40.299Z,4.18
2018-09-30T00:57:40.349Z,4.20
2018-09-30T00:58:40.278Z,4.11
2018-09-30T00:59:40.271Z,4.11
2018-09-30T01:00:40.256Z,4.08
2018-09-30T01:01:40.244Z,4.16
2018-09-30T01:02:40.276Z,4.09
2018-09-30T01:03:40.256Z,4.11
2018-09-30T01:04:40.212Z,4.09
2018-09-30T01:05:40.199Z,3.94
2018-09-30T01:06:40.201Z,4.05
2018-09-30T01:07:40.176Z,3.91
2018-09-30T01:08:40.191Z,3.80
2018-09-30T01:09:40.167Z,3.86
2018-09-30T01:10:40.166Z,3.86
2018-09-30T01:11:40.144Z,3.86
2018-09-30T01:12:40.121Z,3.83
2018-09-30T01:13:40.135Z,3.83
2018-09-30T01:14:40.097Z,3.87
2018-09-30T01:15:40.087Z,3.90
2018-09-30T01:16:40.077Z,3.86
2018-09-30T01:17:40.068Z,3.87
2018-09-30T01:18:40.091Z,3.90
2018-09-30T01:19:40.044Z,3.87
2018-09-30T01:20:40.097Z,3.86
2018-09-30T01:21:40.022Z,3.79
2018-09-30T01:22:40.013Z,3.80
2018-09-30T01:23:40.046Z,3.86
2018-09-30T01:24:40.015Z,3.79
2018-09-30T01:25:39.979Z,3.80
2018-09-30T01:26:39.969Z,3.87
2018-09-30T01:27:39.958Z,3.80
2018-09-30T01:28:39.944Z,3.84
2018-09-30T01:29:39.959Z,3.84
2018-09-30T01:30:39.935Z,3.80
2018-09-30T01:31:39.916Z,3.75
2018-09-30T01:32:39.901Z,3.69
2018-09-30T01:33:39.902Z,3.61
2018-09-30T01:34:39.909Z,3.65
2018-09-30T01:35:39.891Z,3.62
2018-09-30T01:36:39.866Z,3.69
2018-09-30T01:37:39.861Z,3.55
2018-09-30T01:38:39.842Z,3.55
2018-09-30T01:39:39.856Z,3.54
2018-09-30T01:40:39.860Z,3.50
2018-09-30T01:41:39.808Z,3.47
2018-09-30T01:42:39.805Z,3.36
2018-09-30T01:43:39.782Z,3.47
2018-09-30T01:44:39.816Z,3.36
2018-09-30T01:45:39.761Z,3.45
2018-09-30T01:46:39.758Z,3.50
2018-09-30T01:47:39.737Z,3.48
2018-09-30T01:48:39.738Z,3.48
2018-09-30T01:49:39.715Z,3.48
2018-09-30T01:50:39.747Z,3.48
2018-09-30T01:51:39.727Z,3.45
2018-09-30T01:52:39.685Z,3.58
2018-09-30T01:53:39.670Z,3.66
2018-09-30T01:54:39.658Z,3.55
2018-09-30T01:55:39.685Z,3.55
2018-09-30T01:56:39.652Z,3.51
2018-09-30T01:57:39.637Z,3.52
2018-09-30T01:58:39.627Z,3.52
2018-09-30T01:59:39.607Z,3.50
2018-09-30T02:00:39.626Z,3.57
2018-09-30T02:01:39.584Z,3.48
2018-09-30T02:02:39.599Z,3.50
2018-09-30T02:03:39.562Z,3.52
2018-09-30T02:04:39.548Z,3.50
2018-09-30T02:05:39.576Z,3.48
2018-09-30T02:06:39.536Z,3.43
2018-09-30T02:07:39.517Z,3.39
2018-09-30T02:08:39.505Z,3.32
2018-09-30T02:09:39.501Z,3.28
2018-09-30T02:10:39.520Z,3.23
2018-09-30T02:11:39.473Z,3.14
2018-09-30T02:12:39.468Z,3.15
2018-09-30T02:13:39.447Z,3.10
2018-09-30T02:14:39.440Z,3.10
2018-09-30T02:15:39.452Z,3.15
2018-09-30T02:16:39.447Z,3.00
2018-09-30T02:17:39.406Z,2.99
2018-09-30T02:18:39.398Z,3.06
2018-09-30T02:19:39.396Z,2.95
2018-09-30T02:20:39.378Z,3.03
2018-09-30T02:21:39.383Z,2.97
2018-09-30T02:22:39.363Z,3.11
2018-09-30T02:23:39.339Z,3.13
2018-09-30T02:24:39.336Z,3.15
2018-09-30T02:25:39.324Z,3.14
2018-09-30T02:26:39.404Z,3.15
2018-09-30T02:27:39.300Z,3.06
2018-09-30T02:28:39.294Z,3.11
2018-09-30T02:29:39.273Z,2.95
2018-09-30T02:30:39.302Z,2.97
2018-09-30T02:31:39.301Z,3.00
2018-09-30T02:32:39.255Z,2.93
2018-09-30T02:33:39.232Z,2.95
2018-09-30T02:34:39.224Z,3.03
2018-09-30T02:35:39.223Z,2.96
2018-09-30T02:36:39.260Z,2.93
2018-09-30T02:37:39.218Z,2.92
2018-09-30T02:38:39.187Z,2.87
2018-09-30T02:39:39.165Z,2.92
2018-09-30T02:40:39.157Z,2.85
2018-09-30T02:41:39.144Z,2.90
2018-09-30T02:42:39.170Z,2.89
2018-09-30T02:43:39.124Z,2.89
2018-09-30T02:44:39.140Z,2.82
2018-09-30T02:45:39.099Z,2.85
2018-09-30T02:46:39.099Z,2.87
2018-09-30T02:47:39.116Z,2.90
2018-09-30T02:48:39.066Z,2.85
2018-09-30T02:49:39.065Z,2.89
2018-09-30T02:50:39.077Z,2.96
2018-09-30T02:51:39.033Z,2.78
2018-09-30T02:52:39.051Z,2.95
2018-09-30T02:53:39.034Z,2.85
2018-09-30T02:54:39.006Z,2.81
2018-09-30T02:55:38.993Z,2.78
2018-09-30T02:56:38.982Z,2.84
2018-09-30T02:57:38.977Z,2.90
2018-09-30T02:58:38.987Z,2.84
2018-09-30T02:59:38.955Z,2.82
2018-09-30T03:00:38.944Z,2.97
2018-09-30T03:01:38.941Z,2.84
2018-09-30T03:02:38.927Z,2.85
2018-09-30T03:03:38.925Z,2.79
2018-09-30T03:04:38.891Z,2.81
2018-09-30T03:05:38.889Z,2.75
2018-09-30T03:06:38.867Z,2.92
2018-09-30T03:07:38.856Z,2.77
2018-09-30T03:08:38.894Z,2.79
2018-09-30T03:09:38.833Z,2.87
2018-09-30T03:10:38.823Z,2.85
2018-09-30T03:11:38.829Z,2.87
2018-09-30T03:12:38.808Z,2.82
2018-09-30T03:13:38.820Z,2.87
2018-09-30T03:14:38.800Z,2.95
2018-09-30T03:15:38.769Z,2.89
2018-09-30T03:16:38.761Z,2.85
2018-09-30T03:17:38.764Z,2.99
2018-09-30T03:18:38.732Z,2.90
2018-09-30T03:19:38.765Z,2.95
2018-09-30T03:20:38.720Z,2.84
2018-09-30T03:21:38.713Z,2.85
2018-09-30T03:22:38.691Z,2.74
2018-09-30T03:23:38.687Z,2.72
2018-09-30T03:24:38.707Z,2.72
2018-09-30T03:25:38.660Z,2.59
2018-09-30T03:26:38.651Z,2.59
2018-09-30T03:27:38.634Z,2.61
2018-09-30T03:28:38.622Z,2.59
2018-09-30T03:29:38.637Z,2.59
2018-09-30T03:30:38.606Z,2.59
2018-09-30T03:31:38.590Z,2.67
2018-09-30T03:32:38.654Z,2.64
2018-09-30T03:33:38.567Z,2.64
2018-09-30T03:34:38.594Z,2.59
2018-09-30T03:35:38.551Z,2.54
2018-09-30T03:36:38.534Z,2.59
2018-09-30T03:37:38.524Z,2.53
2018-09-30T03:38:38.522Z,2.61
2018-09-30T03:39:38.583Z,2.60
2018-09-30T03:40:38.512Z,2.61
2018-09-30T03:41:38.480Z,2.57
2018-09-30T03:42:38.477Z,2.66
2018-09-30T03:43:38.455Z,2.49
2018-09-30T03:44:38.450Z,2.56
2018-09-30T03:45:38.467Z,2.56
2018-09-30T03:46:38.425Z,2.59
2018-09-30T03:47:38.415Z,2.69
2018-09-30T03:48:38.405Z,2.63
2018-09-30T03:49:38.393Z,2.63
2018-09-30T03:50:38.428Z,2.59
2018-09-30T03:51:38.370Z,2.61
2018-09-30T03:52:38.356Z,2.56
2018-09-30T03:53:38.347Z,2.53
2018-09-30T03:54:38.335Z,2.53
2018-09-30T03:55:38.340Z,2.54
2018-09-30T03:56:38.397Z,2.43
2018-09-30T03:57:38.313Z,2.59
2018-09-30T03:58:38.311Z,2.49
2018-09-30T03:59:38.282Z,2.61
2018-09-30T04:00:38.280Z,2.49
2018-09-30T04:01:38.322Z,2.61
2018-09-30T04:02:38.248Z,2.56
2018-09-30T04:03:38.251Z,2.53
2018-09-30T04:04:38.223Z,2.69
2018-09-30T04:05:38.213Z,2.69
2018-09-30T04:06:38.258Z,2.63
2018-09-30T04:07:38.189Z,2.63
2018-09-30T04:08:38.191Z,2.54
2018-09-30T04:09:38.317Z,2.57
2018-09-30T04:10:38.175Z,2.59
2018-09-30T04:11:38.169Z,2.46
2018-09-30T04:12:38.157Z,2.41
2018-09-30T04:13:38.128Z,2.43
2018-09-30T04:14:38.115Z,2.36
2018-09-30T04:15:38.105Z,2.36
2018-09-30T04:16:38.096Z,2.23
2018-09-30T04:17:38.126Z,2.28
2018-09-30T04:18:38.074Z,2.21
2018-09-30T04:19:38.059Z,2.24
2018-09-30T04:20:38.048Z,2.27
2018-09-30T04:21:38.039Z,2.25
2018-09-30T04:22:38.061Z,2.24
2018-09-30T04:23:38.018Z,2.21
2018-09-30T04:24:38.003Z,2.14
2018-09-30T04:25:37.994Z,2.20
2018-09-30T04:26:37.981Z,2.20
2018-09-30T04:27:37.997Z,2.14
2018-09-30T04:28:37.960Z,2.10
2018-09-30T04:29:37.951Z,2.16
2018-09-30T04:30:37.937Z,2.16
2018-09-30T04:31:37.927Z,2.18
2018-09-30T04:32:37.976Z,2.17
2018-09-30T04:33:37.903Z,2.20
2018-09-30T04:34:37.894Z,2.14
2018-09-30T04:35:37.899Z,2.16
2018-09-30T04:36:37.872Z,2.17
2018-09-30T04:37:37.905Z,2.25
2018-09-30T04:38:37.860Z,2.28
2018-09-30T04:39:37.836Z,2.35
2018-09-30T04:40:37.828Z,2.38
2018-09-30T04:41:37.816Z,2.34
2018-09-30T04:42:37.804Z,2.31
2018-09-30T04:43:37.828Z,2.34
2018-09-30T04:44:37.784Z,2.27
2018-09-30T04:45:37.773Z,2.25
2018-09-30T04:46:37.761Z,2.24
2018-09-30T04:47:37.753Z,2.28
2018-09-30T04:48:37.779Z,2.25
2018-09-30T04:49:37.726Z,2.28
2018-09-30T04:50:37.719Z,2.30
2018-09-30T04:51:37.703Z,2.23
2018-09-30T04:52:37.692Z,2.28
2018-09-30T04:53:37.719Z,2.24
2018-09-30T04:54:37.672Z,2.23
2018-09-30T04:55:37.664Z,2.14
2018-09-30T04:56:37.653Z,2.10
2018-09-30T04:57:37.643Z,2.06
2018-09-30T04:58:37.665Z,2.09
2018-09-30T04:59:37.619Z,2.05
2018-09-30T05:00:37.610Z,1.99
2018-09-30T05:01:37.592Z,1.98
2018-09-30T05:02:37.589Z,1.98
2018-09-30T05:03:37.593Z,1.93
2018-09-30T05:04:37.585Z,2.02
2018-09-30T05:05:37.588Z,1.99
2018-09-30T05:06:37.552Z,2.06
2018-09-30T05:07:37.530Z,2.00
2018-09-30T05:08:37.522Z,2.07
2018-09-30T05:09:37.538Z,2.05
2018-09-30T05:10:37.499Z,2.07
2018-09-30T05:11:37.487Z,2.14
2018-09-30T05:12:37.478Z,2.14
2018-09-30T05:13:37.466Z,2.12
2018-09-30T05:14:37.478Z,2.12
2018-09-30T05:15:37.445Z,2.03
2018-09-30T05:16:37.429Z,2.07
2018-09-30T05:17:37.422Z,2.06
2018-09-30T05:18:37.411Z,2.06
2018-09-30T05:19:37.440Z,2.07
2018-09-30T05:20:37.428Z,2.12
2018-09-30T05:21:37.377Z,2.09
2018-09-30T05:22:37.369Z,2.17
2018-09-30T05:23:37.353Z,2.20
2018-09-30T05:24:37.346Z,2.14
2018-09-30T05:25:37.368Z,2.14
2018-09-30T05:26:37.319Z,2.21
2018-09-30T05:27:37.316Z,2.20
2018-09-30T05:28:37.304Z,2.24
2018-09-30T05:29:37.286Z,2.25
2018-09-30T05:30:37.319Z,2.30
2018-09-30T05:31:37.285Z,2.27
2018-09-30T05:32:37.254Z,2.20
2018-09-30T05:33:37.243Z,2.10
2018-09-30T05:34:37.234Z,2.05
2018-09-30T05:35:37.224Z,2.00
2018-09-30T05:36:37.241Z,2.09
2018-09-30T05:37:37.202Z,2.03
2018-09-30T05:38:37.191Z,1.93
2018-09-30T05:39:37.182Z,1.93
2018-09-30T05:40:37.164Z,1.80
2018-09-30T05:41:37.201Z,1.95
2018-09-30T05:42:37.146Z,2.03
2018-09-30T05:43:37.137Z,1.98
2018-09-30T05:44:37.124Z,2.09
2018-09-30T05:45:37.111Z,2.12
2018-09-30T05:46:37.136Z,2.14
2018-09-30T05:47:37.091Z,2.24
2018-09-30T05:48:37.078Z,2.27
2018-09-30T05:49:37.069Z,2.27
2018-09-30T05:50:37.065Z,2.34
2018-09-30T05:51:37.044Z,2.31
2018-09-30T05:52:37.061Z,2.27
2018-09-30T05:53:37.028Z,2.45
2018-09-30T05:54:37.011Z,2.39
2018-09-30T05:55:37.010Z,2.48
2018-09-30T05:56:36.992Z,2.49
2018-09-30T05:57:37.046Z,2.57
2018-09-30T05:58:36.992Z,2.59
2018-09-30T05:59:36.961Z,2.61
2018-09-30T06:00:36.951Z,2.59
2018-09-30T06:01:36.943Z,2.67
2018-09-30T06:02:36.961Z,2.66
2018-09-30T06:03:36.916Z,2.75
2018-09-30T06:04:36.919Z,2.78
2018-09-30T06:05:36.893Z,2.72
2018-09-30T06:06:36.884Z,2.78
2018-09-30T06:07:36.909Z,2.90
2018-09-30T06:08:36.909Z,2.85
2018-09-30T06:09:36.948Z,2.93
2018-09-30T06:10:36.843Z,2.90
2018-09-30T06:11:36.824Z,2.92
2018-09-30T06:12:36.832Z,2.96
2018-09-30T06:13:36.897Z,3.02
2018-09-30T06:14:36.795Z,3.03
2018-09-30T06:15:36.782Z,3.11
2018-09-30T06:16:36.775Z,3.03
2018-09-30T06:17:36.763Z,3.11
2018-09-30T06:18:36.788Z,3.03
2018-09-30T06:19:36.742Z,3.18
2018-09-30T06:20:36.728Z,3.18
2018-09-30T06:21:36.754Z,3.32
2018-09-30T06:22:36.711Z,3.35
2018-09-30T06:23:36.694Z,3.40
2018-09-30T06:24:36.689Z,3.51
2018-09-30T06:25:36.672Z,3.51
2018-09-30T06:26:36.709Z,3.47
2018-09-30T06:27:36.652Z,3.55
2018-09-30T06:28:36.643Z,3.58
2018-09-30T06:29:36.630Z,3.69
2018-09-30T06:30:36.665Z,3.73
2018-09-30T06:31:36.715Z,3.80
2018-09-30T06:32:36.628Z,3.75
2018-09-30T06:33:36.593Z,3.69
2018-09-30T06:34:36.580Z,3.79
2018-09-30T06:35:36.580Z,3.78
2018-09-30T06:36:36.576Z,3.87
2018-09-30T06:37:36.623Z,3.87
2018-09-30T06:38:36.559Z,3.86
2018-09-30T06:39:36.529Z,3.90
2018-09-30T06:40:36.515Z,3.91
2018-09-30T06:41:36.519Z,4.00
2018-09-30T06:42:36.520Z,3.96
2018-09-30T06:43:36.492Z,3.98
2018-09-30T06:44:36.500Z,3.98
2018-09-30T06:45:36.493Z,4.00
2018-09-30T06:46:36.447Z,4.14
2018-09-30T06:47:36.460Z,4.11
2018-09-30T06:48:36.419Z,4.20
2018-09-30T06:49:36.455Z,4.11
2018-09-30T06:50:36.465Z,4.16
2018-09-30T06:51:36.386Z,4.22
2018-09-30T06:52:36.413Z,4.33
2018-09-30T06:53:36.375Z,4.36
2018-09-30T06:54:36.365Z,4.45
2018-09-30T06:55:36.349Z,4.47
2018-09-30T06:56:36.342Z,4.48
2018-09-30T06:57:36.343Z,4.58
2018-09-30T06:58:36.311Z,4.63
2018-09-30T06:59:36.302Z,4.78
2018-09-30T07:00:36.285Z,4.72
2018-09-30T07:01:36.276Z,4.92
2018-09-30T07:02:36.299Z,5.00
2018-09-30T07:03:36.259Z,5.06
2018-09-30T07:04:36.251Z,5.22
2018-09-30T07:05:36.251Z,5.42
2018-09-30T07:06:36.231Z,5.58
2018-09-30T07:07:36.210Z,5.61
2018-09-30T07:08:36.225Z,5.71
2018-09-30T07:09:36.197Z,5.78
2018-09-30T07:10:36.191Z,5.96
2018-09-30T07:11:36.168Z,6.09
2018-09-30T07:12:36.163Z,6.21
2018-09-30T07:13:36.176Z,6.34
2018-09-30T07:14:36.140Z,6.34
2018-09-30T07:15:36.133Z,6.54
2018-09-30T07:16:36.116Z,6.54
2018-09-30T07:17:36.101Z,6.54
2018-09-30T07:18:36.153Z,6.58
2018-09-30T07:19:36.077Z,6.77
2018-09-30T07:20:36.079Z,6.76
2018-09-30T07:21:36.090Z,6.85
2018-09-30T07:22:36.055Z,6.89
2018-09-30T07:23:36.032Z,6.98
2018-09-30T07:24:36.031Z,7.02
2018-09-30T07:25:36.011Z,7.02
2018-09-30T07:26:36.045Z,7.06
2018-09-30T07:27:36.000Z,7.07
2018-09-30T07:28:35.976Z,7.06
2018-09-30T07:29:36.005Z,7.20
2018-09-30T07:30:35.959Z,7.24
2018-09-30T07:31:35.989Z,7.30
2018-09-30T07:32:35.947Z,7.25
2018-09-30T07:33:35.958Z,7.40
2018-09-30T07:34:35.908Z,7.40
2018-09-30T07:35:35.900Z,7.46
2018-09-30T07:36:35.945Z,7.48
2018-09-30T07:37:35.912Z,7.58
2018-09-30T07:38:35.867Z,7.68
2018-09-30T07:39:35.924Z,7.69
2018-09-30T07:40:35.842Z,7.77
2018-09-30T07:41:35.836Z,7.83
2018-09-30T07:42:35.842Z,7.83
2018-09-30T07:43:35.808Z,7.89
2018-09-30T07:44:35.816Z,7.92
2018-09-30T07:45:35.791Z,7.97
2018-09-30T07:46:35.789Z,8.01
2018-09-30T07:47:35.806Z,8.10
2018-09-30T07:48:35.761Z,8.07
2018-09-30T07:49:35.741Z,8.12
2018-09-30T07:50:35.739Z,8.15
2018-09-30T07:51:35.730Z,8.18
2018-09-30T07:52:35.760Z,8.18
2018-09-30T07:53:35.728Z,8.22
2018-09-30T07:54:35.694Z,8.36
2018-09-30T07:55:35.674Z,8.33
2018-09-30T07:56:35.670Z,8.26
2018-09-30T07:57:35.660Z,8.34
2018-09-30T07:58:35.670Z,8.50
2018-09-30T07:59:36.632Z,8.40
2018-09-30T08:00:35.626Z,8.37
2018-09-30T08:01:35.611Z,8.48
2018-09-30T08:02:35.604Z,8.44
2018-09-30T08:03:35.624Z,8.55
2018-09-30T08:04:35.578Z,8.56
2018-09-30T08:05:35.568Z,8.63
2018-09-30T08:06:35.561Z,8.62
2018-09-30T08:07:35.543Z,8.66
2018-09-30T08:08:35.573Z,8.65
2018-09-30T08:09:35.525Z,8.76
2018-09-30T08:10:35.516Z,8.77
2018-09-30T08:11:35.520Z,8.74
2018-09-30T08:12:35.503Z,8.66
2018-09-30T08:13:35.509Z,8.74
2018-09-30T08:14:35.500Z,8.76
2018-09-30T08:15:35.453Z,8.83
2018-09-30T08:16:35.518Z,8.89
2018-09-30T08:17:35.462Z,8.89
2018-09-30T08:18:35.425Z,8.81
2018-09-30T08:19:35.444Z,8.77
2018-09-30T08:20:35.396Z,8.66
2018-09-30T08:21:35.390Z,8.70
2018-09-30T08:22:35.377Z,8.65
2018-09-30T08:23:35.362Z,8.62
2018-09-30T08:24:35.459Z,8.70
2018-09-30T08:25:35.361Z,8.71
2018-09-30T08:26:35.329Z,8.83
2018-09-30T08:27:35.321Z,8.84
2018-09-30T08:28:35.305Z,8.81
2018-09-30T08:29:35.310Z,8.89
2018-09-30T08:30:35.364Z,9.08
2018-09-30T08:31:35.273Z,9.08
2018-09-30T08:32:35.308Z,9.15
2018-09-30T08:33:35.253Z,9.26
2018-09-30T08:34:35.238Z,9.29
2018-09-30T08:35:35.263Z,9.32
2018-09-30T08:36:35.223Z,9.40
2018-09-30T08:37:35.204Z,9.40
2018-09-30T08:38:35.194Z,9.32
2018-09-30T08:39:35.259Z,9.28
2018-09-30T08:40:35.207Z,9.21
2018-09-30T08:41:35.159Z,9.11
2018-09-30T08:42:35.153Z,9.10
2018-09-30T08:43:35.157Z,9.04
2018-09-30T08:44:35.129Z,8.92
2018-09-30T08:45:35.148Z,9.14
2018-09-30T08:46:35.152Z,9.10
2018-09-30T08:47:35.132Z,9.13
2018-09-30T08:48:35.089Z,9.17
2018-09-30T08:49:35.069Z,9.18
2018-09-30T08:50:35.098Z,9.26
2018-09-30T08:51:35.052Z,9.31
2018-09-30T08:52:35.036Z,9.46
2018-09-30T08:53:35.027Z,9.42
2018-09-30T08:54:35.045Z,9.42
2018-09-30T08:55:35.008Z,9.65
2018-09-30T08:56:34.992Z,9.65
2018-09-30T08:57:34.983Z,9.74
2018-09-30T08:58:34.970Z,9.81
2018-09-30T08:59:35.028Z,9.89
2018-09-30T09:00:34.951Z,9.89
2018-09-30T09:01:34.937Z,9.99
2018-09-30T09:02:34.925Z,10.08
2018-09-30T09:03:34.917Z,10.11
2018-09-30T09:04:34.940Z,10.08
2018-09-30T09:05:34.894Z,10.12
2018-09-30T09:06:34.884Z,10.15
2018-09-30T09:07:34.880Z,10.22
2018-09-30T09:08:34.865Z,10.26
2018-09-30T09:09:34.862Z,10.34
2018-09-30T09:10:34.857Z,10.36
2018-09-30T09:11:34.839Z,10.45
2018-09-30T09:12:34.831Z,10.51
2018-09-30T09:13:34.799Z,10.41
2018-09-30T09:14:34.796Z,10.48
2018-09-30T09:15:34.906Z,10.55
2018-09-30T09:16:34.764Z,10.66
2018-09-30T09:17:34.766Z,10.79
2018-09-30T09:18:34.766Z,10.79
2018-09-30T09:19:34.776Z,10.82
2018-09-30T09:20:34.733Z,10.74
2018-09-30T09:21:34.713Z,10.78
2018-09-30T09:22:34.746Z,10.79
2018-09-30T09:23:34.759Z,10.73
2018-09-30T09:24:34.699Z,10.81
2018-09-30T09:25:34.668Z,10.84
2018-09-30T09:26:34.665Z,10.86
2018-09-30T09:27:34.654Z,10.86
2018-09-30T09:28:34.719Z,10.94
2018-09-30T09:29:34.629Z,11.03
2018-09-30T09:30:34.607Z,11.14
2018-09-30T09:31:34.620Z,11.11
2018-09-30T09:32:34.586Z,11.14
2018-09-30T09:33:34.629Z,11.24
2018-09-30T09:34:34.561Z,11.22
2018-09-30T09:35:34.565Z,11.25
2018-09-30T09:36:34.554Z,11.25
2018-09-30T09:37:34.528Z,11.19
2018-09-30T09:38:34.566Z,11.11
2018-09-30T09:39:34.577Z,11.09
2018-09-30T09:40:34.499Z,11.14
2018-09-30T09:41:34.483Z,11.21
2018-09-30T09:42:34.470Z,11.27
2018-09-30T09:43:34.491Z,11.24
2018-09-30T09:44:34.483Z,11.24
2018-09-30T09:45:34.437Z,11.21
2018-09-30T09:46:34.430Z,11.21
2018-09-30T09:47:34.435Z,11.11
2018-09-30T09:48:34.403Z,11.19
2018-09-30T09:49:34.396Z,11.19
2018-09-30T09:50:34.429Z,11.22
2018-09-30T09:51:34.383Z,11.27
2018-09-30T09:52:34.376Z,11.24
2018-09-30T09:53:34.367Z,11.39
2018-09-30T09:54:34.352Z,11.40
2018-09-30T09:55:34.353Z,11.42
2018-09-30T09:56:34.324Z,11.47
2018-09-30T09:57:34.305Z,11.47
2018-09-30T09:58:34.297Z,11.60
2018-09-30T09:59:34.281Z,11.72
2018-09-30T10:00:34.308Z,11.73
2018-09-30T10:01:34.262Z,11.79
2018-09-30T10:02:34.252Z,11.83
2018-09-30T10:03:34.235Z,11.95
2018-09-30T10:04:34.233Z,11.95
2018-09-30T10:05:34.221Z,11.96
2018-09-30T10:06:34.225Z,12.05
2018-09-30T10:07:34.198Z,12.14
2018-09-30T10:08:34.187Z,12.04
2018-09-30T10:09:34.166Z,12.14
2018-09-30T10:10:34.161Z,12.17
2018-09-30T10:11:34.168Z,12.27
2018-09-30T10:12:34.145Z,12.29
2018-09-30T10:13:34.125Z,12.39
2018-09-30T10:14:34.116Z,12.34
2018-09-30T10:15:34.103Z,12.39
2018-09-30T10:16:34.120Z,12.38
2018-09-30T10:17:34.087Z,12.46
2018-09-30T10:18:34.078Z,12.50
2018-09-30T10:19:34.085Z,12.47
2018-09-30T10:20:34.051Z,12.45
2018-09-30T10:21:34.059Z,12.53
2018-09-30T10:22:34.031Z,12.38
2018-09-30T10:23:34.020Z,12.56
2018-09-30T10:24:34.009Z,12.67
2018-09-30T10:25:34.017Z,12.67
2018-09-30T10:26:33.999Z,12.68
2018-09-30T10:27:33.975Z,12.77
2018-09-30T10:28:33.966Z,12.85
2018-09-30T10:29:33.955Z,12.87
2018-09-30T10:30:33.967Z,12.85
2018-09-30T10:31:33.932Z,13.03
2018-09-30T10:32:33.920Z,12.93
2018-09-30T10:33:33.909Z,12.97
2018-09-30T10:34:33.904Z,13.08
2018-09-30T10:35:33.921Z,13.03
2018-09-30T10:36:33.875Z,13.19
2018-09-30T10:37:33.873Z,13.22
2018-09-30T10:38:34.007Z,13.25
2018-09-30T10:39:33.845Z,13.32
2018-09-30T10:40:33.846Z,13.39
2018-09-30T10:41:33.843Z,13.48
2018-09-30T10:42:33.805Z,13.52
2018-09-30T10:43:33.792Z,13.55
2018-09-30T10:44:33.784Z,13.69
2018-09-30T10:45:33.772Z,13.66
2018-09-30T10:46:33.777Z,13.57
2018-09-30T10:47:33.749Z,13.59
2018-09-30T10:48:33.748Z,13.66
2018-09-30T10:49:33.738Z,13.66
2018-09-30T10:50:33.721Z,13.67
2018-09-30T10:51:33.723Z,13.63
2018-09-30T10:52:33.716Z,13.63
2018-09-30T10:53:33.689Z,13.69
2018-09-30T10:54:33.673Z,13.71
2018-09-30T10:55:33.664Z,13.71
2018-09-30T10:56:33.686Z,13.71
2018-09-30T10:57:33.636Z,13.66
2018-09-30T10:58:33.644Z,13.66
2018-09-30T10:59:33.628Z,13.63
2018-09-30T11:00:33.608Z,13.62
2018-09-30T11:01:33.611Z,13.78
2018-09-30T11:02:33.610Z,13.69
2018-09-30T11:03:33.579Z,13.77
2018-09-30T11:04:33.578Z,13.73
2018-09-30T11:05:33.551Z,13.79
2018-09-30T11:06:33.542Z,13.85
2018-09-30T11:07:33.572Z,13.85
2018-09-30T11:08:33.516Z,13.88
2018-09-30T11:09:33.572Z,13.97
2018-09-30T11:10:33.487Z,14.14
2018-09-30T11:11:33.483Z,14.24
2018-09-30T11:12:33.489Z,14.33
2018-09-30T11:13:33.461Z,14.45
2018-09-30T11:14:33.454Z,14.45
2018-09-30T11:15:33.446Z,14.43
2018-09-30T11:16:33.425Z,14.42
2018-09-30T11:17:33.443Z,14.51
2018-09-30T11:18:33.407Z,14.50
2018-09-30T11:19:33.390Z,14.55
2018-09-30T11:20:33.381Z,14.55
2018-09-30T11:21:33.374Z,14.58
2018-09-30T11:22:33.482Z,14.60
2018-09-30T11:23:33.354Z,14.55
2018-09-30T11:24:33.339Z,14.61
2018-09-30T11:25:33.323Z,14.54
2018-09-30T11:26:33.318Z,14.52
2018-09-30T11:27:33.303Z,14.57
2018-09-30T11:28:33.315Z,14.51
2018-09-30T11:29:33.283Z,14.55
2018-09-30T11:30:33.269Z,14.55
2018-09-30T11:31:33.254Z,14.50
2018-09-30T11:32:33.258Z,14.55
2018-09-30T11:33:33.253Z,14.54
2018-09-30T11:34:33.220Z,14.61
2018-09-30T11:35:33.217Z,14.54
2018-09-30T11:36:33.213Z,14.50
2018-09-30T11:37:33.193Z,14.45
2018-09-30T11:38:33.226Z,14.55
2018-09-30T11:39:33.170Z,14.60
2018-09-30T11:40:33.154Z,14.73
2018-09-30T11:41:33.146Z,14.70
2018-09-30T11:42:33.142Z,14.81
2018-09-30T11:43:33.164Z,14.84
2018-09-30T11:44:33.133Z,14.91
2018-09-30T11:45:33.111Z,14.84
2018-09-30T11:46:33.087Z,14.91
2018-09-30T11:47:33.079Z,14.95
2018-09-30T11:48:33.120Z,14.95
2018-09-30T11:49:33.080Z,14.98
2018-09-30T11:50:33.060Z,15.07
2018-09-30T11:51:33.043Z,15.02
2018-09-30T11:52:33.046Z,15.02
2018-09-30T11:53:33.012Z,15.11
2018-09-30T11:54:33.017Z,15.09
2018-09-30T11:55:32.987Z,15.14
2018-09-30T11:56:32.984Z,15.16
2018-09-30T11:57:32.971Z,15.16
2018-09-30T11:58:32.954Z,15.28
2018-09-30T11:59:32.982Z,15.21
2018-09-30T12:00:32.935Z,15.27
2018-09-30T12:01:32.921Z,15.31
2018-09-30T12:02:32.923Z,15.34
2018-09-30T12:03:32.902Z,15.44
2018-09-30T12:04:32.928Z,15.57
2018-09-30T12:05:32.883Z,15.64
2018-09-30T12:06:32.868Z,15.69
2018-09-30T12:07:32.850Z,15.84
2018-09-30T12:08:32.843Z,15.83
2018-09-30T12:09:32.851Z,15.87
2018-09-30T12:10:32.853Z,15.87
2018-09-30T12:11:32.809Z,15.84
2018-09-30T12:12:32.800Z,15.69
2018-09-30T12:13:32.785Z,15.67
2018-09-30T12:14:32.786Z,15.64
2018-09-30T12:15:32.785Z,15.78
2018-09-30T12:16:32.750Z,15.78
2018-09-30T12:17:32.744Z,15.87
2018-09-30T12:18:32.765Z,15.89
2018-09-30T12:19:32.715Z,15.84
2018-09-30T12:20:32.747Z,15.86
2018-09-30T12:21:32.701Z,15.94
2018-09-30T12:22:32.730Z,16.09
2018-09-30T12:23:32.677Z,16.17
2018-09-30T12:24:32.667Z,16.15
2018-09-30T12:25:32.653Z,16.15
2018-09-30T12:26:32.638Z,16.15
2018-09-30T12:27:32.663Z,16.17
2018-09-30T12:28:32.619Z,16.23
2018-09-30T12:29:32.604Z,16.15
2018-09-30T12:30:32.596Z,16.23
2018-09-30T12:31:32.582Z,16.33
2018-09-30T12:32:32.622Z,16.43
2018-09-30T12:33:32.557Z,16.28
2018-09-30T12:34:32.564Z,16.39
2018-09-30T12:35:32.542Z,16.31
2018-09-30T12:36:32.546Z,16.25
2018-09-30T12:37:32.520Z,16.33
2018-09-30T12:38:32.526Z,16.42
2018-09-30T12:39:32.490Z,16.35
2018-09-30T12:40:32.490Z,16.41
2018-09-30T12:41:32.474Z,16.41
2018-09-30T12:42:32.456Z,16.53
2018-09-30T12:43:32.474Z,16.53
2018-09-30T12:44:32.439Z,16.57
2018-09-30T12:45:32.422Z,16.57
2018-09-30T12:46:32.415Z,16.56
2018-09-30T12:47:32.412Z,16.61
2018-09-30T12:48:32.423Z,16.63
2018-09-30T12:49:32.383Z,16.61
2018-09-30T12:50:32.374Z,16.56
2018-09-30T12:51:32.356Z,16.52
2018-09-30T12:52:32.352Z,16.45
2018-09-30T12:53:32.365Z,16.56
2018-09-30T12:54:32.324Z,16.50
2018-09-30T12:55:33.211Z,16.46
2018-09-30T12:56:32.309Z,16.56
2018-09-30T12:57:32.297Z,16.57
2018-09-30T12:58:32.319Z,16.81
2018-09-30T12:59:32.275Z,16.93
2018-09-30T13:00:32.254Z,16.91
2018-09-30T13:01:32.258Z,16.96
2018-09-30T13:02:32.243Z,17.03
2018-09-30T13:03:32.249Z,17.08
2018-09-30T13:04:32.222Z,17.08
2018-09-30T13:05:32.209Z,17.11
2018-09-30T13:06:32.196Z,17.12
2018-09-30T13:07:32.184Z,17.14
2018-09-30T13:08:32.199Z,17.19
2018-09-30T13:09:32.172Z,17.21
2018-09-30T13:10:32.148Z,17.25